sensor_id;sensor_type;location;lat;lon;timestamp;P1;durP1;ratioP1;P2;durP2;ratioP2
31182;SDS011;17813;0.000;0.000;2023-12-22T00:00:32;9.83;;;3.10;;
31182;SDS011;17813;0.000;0.000;2023-12-22T00:02:59;15.50;;;3.43;;
31182;SDS011;17813;0.000;0.000;2023-12-22T00:05:50;10.37;;;2.80;;
31182;SDS011;17813;0.000;0.000;2023-12-22T00:08:31;9.87;;;2.80;;
31182;SDS011;17813;0.000;0.000;2023-12-22T00:11:00;13.30;;;3.30;;
31182;SDS011;17813;0.000;0.000;2023-12-22T00:13:27;11.63;;;3.20;;
31182;SDS011;17813;0.000;0.000;2023-12-22T00:16:09;15.37;;;3.37;;
31182;SDS011;17813;0.000;0.000;2023-12-22T00:18:52;13.90;;;3.77;;
31182;SDS011;17813;0.000;0.000;2023-12-22T00:21:30;14.50;;;3.53;;
31182;SDS011;17813;0.000;0.000;2023-12-22T00:24:12;15.20;;;3.53;;
31182;SDS011;17813;0.000;0.000;2023-12-22T00:26:42;15.97;;;4.00;;
31182;SDS011;17813;0.000;0.000;2023-12-22T00:29:10;19.60;;;4.00;;
31182;SDS011;17813;0.000;0.000;2023-12-22T00:31:49;12.67;;;3.50;;
31182;SDS011;17813;0.000;0.000;2023-12-22T00:34:42;13.83;;;3.30;;
31182;SDS011;17813;0.000;0.000;2023-12-22T00:37:10;13.37;;;3.23;;
31182;SDS011;17813;0.000;0.000;2023-12-22T00:39:58;14.60;;;3.83;;
31182;SDS011;17813;0.000;0.000;2023-12-22T00:42:26;11.57;;;3.47;;
31182;SDS011;17813;0.000;0.000;2023-12-22T00:45:06;13.53;;;3.77;;
31182;SDS011;17813;0.000;0.000;2023-12-22T00:47:58;14.97;;;3.67;;
31182;SDS011;17813;0.000;0.000;2023-12-22T00:50:25;15.93;;;3.37;;
31182;SDS011;17813;0.000;0.000;2023-12-22T00:52:54;15.73;;;4.40;;
31182;SDS011;17813;0.000;0.000;2023-12-22T00:55:40;14.13;;;3.43;;
31182;SDS011;17813;0.000;0.000;2023-12-22T00:58:06;17.20;;;3.97;;
31182;SDS011;17813;0.000;0.000;2023-12-22T01:00:36;15.80;;;4.10;;
31182;SDS011;17813;0.000;0.000;2023-12-22T01:03:06;14.87;;;3.47;;
31182;SDS011;17813;0.000;0.000;2023-12-22T01:05:57;14.30;;;4.00;;
31182;SDS011;17813;0.000;0.000;2023-12-22T01:08:28;14.97;;;3.73;;
31182;SDS011;17813;0.000;0.000;2023-12-22T01:11:10;16.63;;;3.93;;
31182;SDS011;17813;0.000;0.000;2023-12-22T01:14:04;13.70;;;3.73;;
31182;SDS011;17813;0.000;0.000;2023-12-22T01:16:49;13.73;;;3.90;;
31182;SDS011;17813;0.000;0.000;2023-12-22T01:19:18;16.20;;;4.13;;
31182;SDS011;17813;0.000;0.000;2023-12-22T01:22:08;14.47;;;3.83;;
31182;SDS011;17813;0.000;0.000;2023-12-22T01:25:03;10.87;;;3.37;;
31182;SDS011;17813;0.000;0.000;2023-12-22T01:27:47;14.40;;;3.83;;
31182;SDS011;17813;0.000;0.000;2023-12-22T01:30:42;15.43;;;3.80;;
31182;SDS011;17813;0.000;0.000;2023-12-22T01:33:16;13.33;;;3.77;;
31182;SDS011;17813;0.000;0.000;2023-12-22T01:35:43;14.33;;;3.67;;
31182;SDS011;17813;0.000;0.000;2023-12-22T01:38:10;15.37;;;3.83;;
31182;SDS011;17813;0.000;0.000;2023-12-22T01:40:38;10.97;;;3.50;;
31182;SDS011;17813;0.000;0.000;2023-12-22T01:43:05;12.50;;;3.67;;
31182;SDS011;17813;0.000;0.000;2023-12-22T01:45:52;13.93;;;3.50;;
31182;SDS011;17813;0.000;0.000;2023-12-22T01:48:27;13.07;;;4.00;;
31182;SDS011;17813;0.000;0.000;2023-12-22T01:51:02;14.30;;;3.90;;
31182;SDS011;17813;0.000;0.000;2023-12-22T01:53:31;12.67;;;3.57;;
31182;SDS011;17813;0.000;0.000;2023-12-22T01:56:00;11.87;;;3.60;;
31182;SDS011;17813;0.000;0.000;2023-12-22T02:02:36;15.63;;;4.10;;
31182;SDS011;17813;0.000;0.000;2023-12-22T02:05:21;13.80;;;3.37;;
31182;SDS011;17813;0.000;0.000;2023-12-22T02:08:09;11.30;;;3.90;;
31182;SDS011;17813;0.000;0.000;2023-12-22T02:10:49;11.93;;;3.37;;
31182;SDS011;17813;0.000;0.000;2023-12-22T02:13:16;14.23;;;3.50;;
31182;SDS011;17813;0.000;0.000;2023-12-22T02:16:00;12.60;;;3.70;;
31182;SDS011;17813;0.000;0.000;2023-12-22T02:18:36;13.90;;;3.47;;
31182;SDS011;17813;0.000;0.000;2023-12-22T02:21:09;10.23;;;3.23;;
31182;SDS011;17813;0.000;0.000;2023-12-22T02:23:54;17.57;;;3.67;;
31182;SDS011;17813;0.000;0.000;2023-12-22T02:26:42;10.80;;;3.10;;
31182;SDS011;17813;0.000;0.000;2023-12-22T02:29:13;11.10;;;3.40;;
31182;SDS011;17813;0.000;0.000;2023-12-22T02:31:42;12.23;;;3.17;;
31182;SDS011;17813;0.000;0.000;2023-12-22T02:34:18;12.57;;;3.30;;
31182;SDS011;17813;0.000;0.000;2023-12-22T02:36:47;10.90;;;3.87;;
31182;SDS011;17813;0.000;0.000;2023-12-22T02:39:17;10.17;;;2.97;;
31182;SDS011;17813;0.000;0.000;2023-12-22T02:41:50;8.60;;;3.00;;
31182;SDS011;17813;0.000;0.000;2023-12-22T02:44:35;13.40;;;3.40;;
31182;SDS011;17813;0.000;0.000;2023-12-22T02:47:03;11.17;;;3.30;;
31182;SDS011;17813;0.000;0.000;2023-12-22T02:49:30;10.33;;;3.20;;
31182;SDS011;17813;0.000;0.000;2023-12-22T02:52:00;11.73;;;3.50;;
31182;SDS011;17813;0.000;0.000;2023-12-22T02:54:30;9.47;;;3.03;;
31182;SDS011;17813;0.000;0.000;2023-12-22T02:57:00;10.90;;;2.97;;
31182;SDS011;17813;0.000;0.000;2023-12-22T02:59:27;10.67;;;3.07;;
31182;SDS011;17813;0.000;0.000;2023-12-22T03:02:04;10.17;;;3.30;;
31182;SDS011;17813;0.000;0.000;2023-12-22T03:04:31;11.03;;;2.83;;
31182;SDS011;17813;0.000;0.000;2023-12-22T03:07:04;12.40;;;2.90;;
31182;SDS011;17813;0.000;0.000;2023-12-22T03:09:51;13.87;;;2.80;;
31182;SDS011;17813;0.000;0.000;2023-12-22T03:12:18;9.30;;;2.97;;
31182;SDS011;17813;0.000;0.000;2023-12-22T03:15:00;7.77;;;2.33;;
31182;SDS011;17813;0.000;0.000;2023-12-22T03:17:35;6.27;;;2.20;;
31182;SDS011;17813;0.000;0.000;2023-12-22T03:20:25;7.23;;;2.47;;
31182;SDS011;17813;0.000;0.000;2023-12-22T03:23:12;7.20;;;2.40;;
31182;SDS011;17813;0.000;0.000;2023-12-22T03:26:04;7.33;;;2.60;;
31182;SDS011;17813;0.000;0.000;2023-12-22T03:28:31;8.17;;;2.87;;
31182;SDS011;17813;0.000;0.000;2023-12-22T03:31:24;10.27;;;2.60;;
31182;SDS011;17813;0.000;0.000;2023-12-22T03:33:56;6.07;;;2.80;;
31182;SDS011;17813;0.000;0.000;2023-12-22T03:36:26;6.63;;;2.37;;
31182;SDS011;17813;0.000;0.000;2023-12-22T03:39:02;9.33;;;2.57;;
31182;SDS011;17813;0.000;0.000;2023-12-22T03:41:29;9.37;;;2.77;;
31182;SDS011;17813;0.000;0.000;2023-12-22T03:44:05;5.87;;;2.43;;
31182;SDS011;17813;0.000;0.000;2023-12-22T03:46:44;8.37;;;2.43;;
31182;SDS011;17813;0.000;0.000;2023-12-22T03:49:10;5.27;;;2.10;;
31182;SDS011;17813;0.000;0.000;2023-12-22T03:51:37;5.80;;;2.20;;
31182;SDS011;17813;0.000;0.000;2023-12-22T03:54:23;9.27;;;2.77;;
31182;SDS011;17813;0.000;0.000;2023-12-22T03:57:03;8.37;;;2.23;;
31182;SDS011;17813;0.000;0.000;2023-12-22T03:59:48;8.60;;;2.60;;
31182;SDS011;17813;0.000;0.000;2023-12-22T04:02:21;7.20;;;2.60;;
31182;SDS011;17813;0.000;0.000;2023-12-22T04:04:48;7.87;;;2.50;;
31182;SDS011;17813;0.000;0.000;2023-12-22T04:07:30;7.00;;;2.40;;
31182;SDS011;17813;0.000;0.000;2023-12-22T04:10:09;7.33;;;2.40;;
31182;SDS011;17813;0.000;0.000;2023-12-22T04:12:48;8.07;;;2.47;;
31182;SDS011;17813;0.000;0.000;2023-12-22T04:15:15;10.00;;;2.37;;
31182;SDS011;17813;0.000;0.000;2023-12-22T04:17:56;7.63;;;2.33;;
31182;SDS011;17813;0.000;0.000;2023-12-22T04:20:35;9.60;;;2.43;;
31182;SDS011;17813;0.000;0.000;2023-12-22T04:23:13;9.07;;;2.20;;
31182;SDS011;17813;0.000;0.000;2023-12-22T04:25:51;5.23;;;1.97;;
31182;SDS011;17813;0.000;0.000;2023-12-22T04:28:29;6.70;;;2.00;;
31182;SDS011;17813;0.000;0.000;2023-12-22T04:31:08;5.27;;;1.80;;
31182;SDS011;17813;0.000;0.000;2023-12-22T04:33:58;4.80;;;1.73;;
31182;SDS011;17813;0.000;0.000;2023-12-22T04:36:40;4.97;;;1.60;;
31182;SDS011;17813;0.000;0.000;2023-12-22T04:39:07;6.67;;;2.10;;
31182;SDS011;17813;0.000;0.000;2023-12-22T04:41:46;3.13;;;1.53;;
31182;SDS011;17813;0.000;0.000;2023-12-22T04:44:34;5.13;;;1.60;;
31182;SDS011;17813;0.000;0.000;2023-12-22T04:47:09;4.60;;;1.77;;
31182;SDS011;17813;0.000;0.000;2023-12-22T04:49:38;5.07;;;1.57;;
31182;SDS011;17813;0.000;0.000;2023-12-22T04:52:14;4.80;;;1.57;;
31182;SDS011;17813;0.000;0.000;2023-12-22T04:54:41;3.00;;;1.20;;
31182;SDS011;17813;0.000;0.000;2023-12-22T04:57:08;2.00;;;1.00;;
31182;SDS011;17813;0.000;0.000;2023-12-22T04:59:35;2.23;;;1.10;;
31182;SDS011;17813;0.000;0.000;2023-12-22T05:02:17;2.30;;;1.17;;
31182;SDS011;17813;0.000;0.000;2023-12-22T05:09:03;3.20;;;1.00;;
31182;SDS011;17813;0.000;0.000;2023-12-22T05:11:49;2.83;;;1.03;;
31182;SDS011;17813;0.000;0.000;2023-12-22T05:14:28;3.43;;;1.20;;
31182;SDS011;17813;0.000;0.000;2023-12-22T05:16:55;3.67;;;1.27;;
31182;SDS011;17813;0.000;0.000;2023-12-22T05:19:22;3.20;;;1.40;;
31182;SDS011;17813;0.000;0.000;2023-12-22T05:22:08;3.90;;;1.37;;
31182;SDS011;17813;0.000;0.000;2023-12-22T05:24:36;3.20;;;1.20;;
31182;SDS011;17813;0.000;0.000;2023-12-22T05:27:21;3.33;;;1.23;;
31182;SDS011;17813;0.000;0.000;2023-12-22T05:30:08;2.43;;;1.10;;
31182;SDS011;17813;0.000;0.000;2023-12-22T05:32:36;4.50;;;1.30;;
31182;SDS011;17813;0.000;0.000;2023-12-22T05:35:15;3.70;;;1.47;;
31182;SDS011;17813;0.000;0.000;2023-12-22T05:37:50;4.40;;;1.40;;
31182;SDS011;17813;0.000;0.000;2023-12-22T05:40:31;6.03;;;1.47;;
31182;SDS011;17813;0.000;0.000;2023-12-22T05:43:03;5.33;;;1.53;;
31182;SDS011;17813;0.000;0.000;2023-12-22T05:45:47;4.27;;;1.67;;
31182;SDS011;17813;0.000;0.000;2023-12-22T05:48:22;7.37;;;1.80;;
31182;SDS011;17813;0.000;0.000;2023-12-22T05:50:56;4.83;;;1.60;;
31182;SDS011;17813;0.000;0.000;2023-12-22T05:53:29;5.53;;;2.10;;
31182;SDS011;17813;0.000;0.000;2023-12-22T05:56:00;6.80;;;1.70;;
31182;SDS011;17813;0.000;0.000;2023-12-22T05:58:35;6.57;;;1.80;;
31182;SDS011;17813;0.000;0.000;2023-12-22T06:01:14;5.60;;;1.90;;
31182;SDS011;17813;0.000;0.000;2023-12-22T06:04:16;5.93;;;1.57;;
31182;SDS011;17813;0.000;0.000;2023-12-22T06:06:44;4.57;;;1.60;;
31182;SDS011;17813;0.000;0.000;2023-12-22T06:09:14;3.30;;;1.70;;
31182;SDS011;17813;0.000;0.000;2023-12-22T06:11:41;5.90;;;1.77;;
31182;SDS011;17813;0.000;0.000;2023-12-22T06:14:08;7.63;;;2.00;;
31182;SDS011;17813;0.000;0.000;2023-12-22T06:16:34;5.73;;;1.83;;
31182;SDS011;17813;0.000;0.000;2023-12-22T06:19:02;7.17;;;2.30;;
31182;SDS011;17813;0.000;0.000;2023-12-22T06:21:58;5.80;;;1.70;;
31182;SDS011;17813;0.000;0.000;2023-12-22T06:24:25;7.37;;;1.60;;
31182;SDS011;17813;0.000;0.000;2023-12-22T06:26:53;7.50;;;1.83;;
31182;SDS011;17813;0.000;0.000;2023-12-22T06:29:37;7.53;;;1.63;;
31182;SDS011;17813;0.000;0.000;2023-12-22T06:32:20;5.80;;;1.90;;
31182;SDS011;17813;0.000;0.000;2023-12-22T06:34:51;4.60;;;2.07;;
31182;SDS011;17813;0.000;0.000;2023-12-22T06:37:18;7.97;;;1.90;;
31182;SDS011;17813;0.000;0.000;2023-12-22T06:39:49;7.23;;;2.27;;
31182;SDS011;17813;0.000;0.000;2023-12-22T06:42:25;7.90;;;2.50;;
31182;SDS011;17813;0.000;0.000;2023-12-22T06:45:07;6.67;;;2.10;;
31182;SDS011;17813;0.000;0.000;2023-12-22T06:47:39;9.93;;;2.67;;
31182;SDS011;17813;0.000;0.000;2023-12-22T06:50:16;8.43;;;2.03;;
31182;SDS011;17813;0.000;0.000;2023-12-22T06:53:01;6.57;;;2.00;;
31182;SDS011;17813;0.000;0.000;2023-12-22T06:55:29;7.53;;;1.90;;
31182;SDS011;17813;0.000;0.000;2023-12-22T06:58:16;5.10;;;2.07;;
31182;SDS011;17813;0.000;0.000;2023-12-22T07:00:51;7.00;;;2.20;;
31182;SDS011;17813;0.000;0.000;2023-12-22T07:03:21;8.47;;;2.30;;
31182;SDS011;17813;0.000;0.000;2023-12-22T07:06:06;5.87;;;1.80;;
31182;SDS011;17813;0.000;0.000;2023-12-22T07:11:50;6.00;;;2.20;;
31182;SDS011;17813;0.000;0.000;2023-12-22T07:14:49;5.77;;;1.87;;
31182;SDS011;17813;0.000;0.000;2023-12-22T07:17:38;5.40;;;1.80;;
31182;SDS011;17813;0.000;0.000;2023-12-22T07:20:05;5.50;;;1.80;;
31182;SDS011;17813;0.000;0.000;2023-12-22T07:22:44;5.57;;;1.83;;
31182;SDS011;17813;0.000;0.000;2023-12-22T07:25:11;3.63;;;1.70;;
31182;SDS011;17813;0.000;0.000;2023-12-22T07:27:56;7.30;;;2.00;;
31182;SDS011;17813;0.000;0.000;2023-12-22T07:30:28;4.23;;;1.90;;
31182;SDS011;17813;0.000;0.000;2023-12-22T07:32:57;3.50;;;1.70;;
31182;SDS011;17813;0.000;0.000;2023-12-22T07:35:27;6.20;;;1.80;;
31182;SDS011;17813;0.000;0.000;2023-12-22T07:38:06;4.80;;;1.90;;
31182;SDS011;17813;0.000;0.000;2023-12-22T07:40:59;7.93;;;2.00;;
31182;SDS011;17813;0.000;0.000;2023-12-22T07:43:30;5.90;;;1.93;;
31182;SDS011;17813;0.000;0.000;2023-12-22T07:46:27;4.60;;;1.40;;
31182;SDS011;17813;0.000;0.000;2023-12-22T07:49:10;3.97;;;1.33;;
31182;SDS011;17813;0.000;0.000;2023-12-22T07:51:48;4.77;;;1.20;;
31182;SDS011;17813;0.000;0.000;2023-12-22T07:54:17;5.30;;;1.60;;
31182;SDS011;17813;0.000;0.000;2023-12-22T07:57:00;4.93;;;1.77;;
31182;SDS011;17813;0.000;0.000;2023-12-22T07:59:45;4.43;;;1.60;;
31182;SDS011;17813;0.000;0.000;2023-12-22T08:02:12;3.37;;;1.30;;
31182;SDS011;17813;0.000;0.000;2023-12-22T08:05:05;3.13;;;0.90;;
31182;SDS011;17813;0.000;0.000;2023-12-22T08:07:37;3.30;;;1.10;;
31182;SDS011;17813;0.000;0.000;2023-12-22T08:10:25;4.80;;;1.57;;
31182;SDS011;17813;0.000;0.000;2023-12-22T08:12:55;4.60;;;1.40;;
31182;SDS011;17813;0.000;0.000;2023-12-22T08:15:28;2.63;;;1.17;;
31182;SDS011;17813;0.000;0.000;2023-12-22T08:18:09;3.83;;;1.93;;
31182;SDS011;17813;0.000;0.000;2023-12-22T08:20:48;2.87;;;1.10;;
31182;SDS011;17813;0.000;0.000;2023-12-22T08:23:35;2.17;;;1.20;;
31182;SDS011;17813;0.000;0.000;2023-12-22T08:26:17;2.67;;;1.30;;
31182;SDS011;17813;0.000;0.000;2023-12-22T08:28:58;5.00;;;1.40;;
31182;SDS011;17813;0.000;0.000;2023-12-22T08:31:43;4.27;;;1.33;;
31182;SDS011;17813;0.000;0.000;2023-12-22T08:34:16;3.13;;;1.20;;
31182;SDS011;17813;0.000;0.000;2023-12-22T08:36:43;3.63;;;1.13;;
31182;SDS011;17813;0.000;0.000;2023-12-22T08:39:24;1.87;;;1.07;;
31182;SDS011;17813;0.000;0.000;2023-12-22T08:42:08;2.20;;;1.00;;
31182;SDS011;17813;0.000;0.000;2023-12-22T08:44:36;1.60;;;0.77;;
31182;SDS011;17813;0.000;0.000;2023-12-22T08:47:14;1.47;;;0.90;;
31182;SDS011;17813;0.000;0.000;2023-12-22T08:49:45;2.17;;;1.07;;
31182;SDS011;17813;0.000;0.000;2023-12-22T08:52:34;2.83;;;1.10;;
31182;SDS011;17813;0.000;0.000;2023-12-22T08:55:09;1.77;;;0.90;;
31182;SDS011;17813;0.000;0.000;2023-12-22T08:57:57;2.23;;;1.13;;
31182;SDS011;17813;0.000;0.000;2023-12-22T09:00:36;2.63;;;1.10;;
31182;SDS011;17813;0.000;0.000;2023-12-22T09:03:06;3.37;;;1.40;;
31182;SDS011;17813;0.000;0.000;2023-12-22T09:05:48;2.43;;;1.00;;
31182;SDS011;17813;0.000;0.000;2023-12-22T09:08:19;3.67;;;1.40;;
31182;SDS011;17813;0.000;0.000;2023-12-22T09:11:01;1.80;;;1.10;;
31182;SDS011;17813;0.000;0.000;2023-12-22T09:13:46;5.10;;;1.43;;
31182;SDS011;17813;0.000;0.000;2023-12-22T09:16:22;2.97;;;1.20;;
31182;SDS011;17813;0.000;0.000;2023-12-22T09:18:51;3.53;;;1.50;;
31182;SDS011;17813;0.000;0.000;2023-12-22T09:21:24;4.00;;;1.43;;
31182;SDS011;17813;0.000;0.000;2023-12-22T09:24:07;5.63;;;1.60;;
31182;SDS011;17813;0.000;0.000;2023-12-22T09:26:34;10.93;;;2.00;;
31182;SDS011;17813;0.000;0.000;2023-12-22T09:29:15;7.93;;;1.90;;
31182;SDS011;17813;0.000;0.000;2023-12-22T09:31:46;6.10;;;1.70;;
31182;SDS011;17813;0.000;0.000;2023-12-22T09:34:36;9.40;;;2.10;;
31182;SDS011;17813;0.000;0.000;2023-12-22T09:37:05;6.87;;;1.80;;
31182;SDS011;17813;0.000;0.000;2023-12-22T09:39:33;8.10;;;2.10;;
31182;SDS011;17813;0.000;0.000;2023-12-22T09:42:07;4.10;;;1.80;;
31182;SDS011;17813;0.000;0.000;2023-12-22T09:44:46;8.77;;;2.07;;
31182;SDS011;17813;0.000;0.000;2023-12-22T09:47:18;8.10;;;2.00;;
31182;SDS011;17813;0.000;0.000;2023-12-22T09:49:47;5.63;;;2.07;;
31182;SDS011;17813;0.000;0.000;2023-12-22T09:52:53;6.50;;;2.00;;
31182;SDS011;17813;0.000;0.000;2023-12-22T09:55:36;6.53;;;2.20;;
31182;SDS011;17813;0.000;0.000;2023-12-22T09:58:20;6.23;;;1.90;;
31182;SDS011;17813;0.000;0.000;2023-12-22T10:00:54;5.87;;;2.10;;
31182;SDS011;17813;0.000;0.000;2023-12-22T10:07:41;7.37;;;2.20;;
31182;SDS011;17813;0.000;0.000;2023-12-22T10:10:24;5.57;;;2.00;;
31182;SDS011;17813;0.000;0.000;2023-12-22T10:12:53;6.57;;;2.33;;
31182;SDS011;17813;0.000;0.000;2023-12-22T10:15:23;5.97;;;2.00;;
31182;SDS011;17813;0.000;0.000;2023-12-22T10:18:02;6.70;;;2.17;;
31182;SDS011;17813;0.000;0.000;2023-12-22T10:20:38;5.50;;;2.20;;
31182;SDS011;17813;0.000;0.000;2023-12-22T10:23:28;6.07;;;2.10;;
31182;SDS011;17813;0.000;0.000;2023-12-22T10:25:57;6.63;;;2.10;;
31182;SDS011;17813;0.000;0.000;2023-12-22T10:28:49;6.27;;;2.10;;
31182;SDS011;17813;0.000;0.000;2023-12-22T10:31:22;7.60;;;2.27;;
31182;SDS011;17813;0.000;0.000;2023-12-22T10:34:05;6.23;;;2.03;;
31182;SDS011;17813;0.000;0.000;2023-12-22T10:36:47;7.73;;;2.13;;
31182;SDS011;17813;0.000;0.000;2023-12-22T10:39:14;5.23;;;2.00;;
31182;SDS011;17813;0.000;0.000;2023-12-22T10:42:00;9.53;;;2.47;;
31182;SDS011;17813;0.000;0.000;2023-12-22T10:44:28;9.10;;;2.20;;
31182;SDS011;17813;0.000;0.000;2023-12-22T10:47:19;6.83;;;2.10;;
31182;SDS011;17813;0.000;0.000;2023-12-22T10:50:06;7.03;;;2.30;;
31182;SDS011;17813;0.000;0.000;2023-12-22T10:53:05;5.90;;;2.00;;
31182;SDS011;17813;0.000;0.000;2023-12-22T10:55:45;9.20;;;2.10;;
31182;SDS011;17813;0.000;0.000;2023-12-22T10:58:37;4.87;;;2.10;;
31182;SDS011;17813;0.000;0.000;2023-12-22T11:01:07;6.77;;;2.10;;
31182;SDS011;17813;0.000;0.000;2023-12-22T11:03:50;5.67;;;2.10;;
31182;SDS011;17813;0.000;0.000;2023-12-22T11:06:19;6.17;;;2.07;;
31182;SDS011;17813;0.000;0.000;2023-12-22T11:08:47;5.47;;;2.00;;
31182;SDS011;17813;0.000;0.000;2023-12-22T11:11:37;7.30;;;2.00;;
31182;SDS011;17813;0.000;0.000;2023-12-22T11:14:20;6.77;;;2.20;;
31182;SDS011;17813;0.000;0.000;2023-12-22T11:16:49;5.27;;;1.90;;
31182;SDS011;17813;0.000;0.000;2023-12-22T11:19:19;6.50;;;2.30;;
31182;SDS011;17813;0.000;0.000;2023-12-22T11:21:51;5.67;;;1.90;;
31182;SDS011;17813;0.000;0.000;2023-12-22T11:24:33;6.60;;;2.10;;
31182;SDS011;17813;0.000;0.000;2023-12-22T11:27:10;4.33;;;1.80;;
31182;SDS011;17813;0.000;0.000;2023-12-22T11:29:55;3.43;;;1.37;;
31182;SDS011;17813;0.000;0.000;2023-12-22T11:32:36;3.47;;;1.23;;
31182;SDS011;17813;0.000;0.000;2023-12-22T11:35:04;4.63;;;1.77;;
31182;SDS011;17813;0.000;0.000;2023-12-22T11:37:34;4.67;;;1.60;;
31182;SDS011;17813;0.000;0.000;2023-12-22T11:40:14;4.63;;;1.63;;
31182;SDS011;17813;0.000;0.000;2023-12-22T11:42:45;4.33;;;1.90;;
31182;SDS011;17813;0.000;0.000;2023-12-22T11:45:18;5.17;;;1.50;;
31182;SDS011;17813;0.000;0.000;2023-12-22T11:47:48;5.93;;;1.77;;
31182;SDS011;17813;0.000;0.000;2023-12-22T11:50:28;4.93;;;1.93;;
31182;SDS011;17813;0.000;0.000;2023-12-22T11:56:00;4.77;;;1.73;;
31182;SDS011;17813;0.000;0.000;2023-12-22T11:58:43;5.37;;;1.60;;
31182;SDS011;17813;0.000;0.000;2023-12-22T12:01:38;5.17;;;1.73;;
31182;SDS011;17813;0.000;0.000;2023-12-22T12:04:28;3.97;;;1.60;;
31182;SDS011;17813;0.000;0.000;2023-12-22T12:10:51;3.17;;;1.40;;
31182;SDS011;17813;0.000;0.000;2023-12-22T12:13:24;3.03;;;1.40;;
31182;SDS011;17813;0.000;0.000;2023-12-22T12:15:55;3.90;;;1.30;;
31182;SDS011;17813;0.000;0.000;2023-12-22T12:18:26;3.73;;;1.50;;
31182;SDS011;17813;0.000;0.000;2023-12-22T12:20:54;1.80;;;1.20;;
31182;SDS011;17813;0.000;0.000;2023-12-22T12:23:24;3.30;;;1.43;;
31182;SDS011;17813;0.000;0.000;2023-12-22T12:26:02;3.30;;;1.00;;
31182;SDS011;17813;0.000;0.000;2023-12-22T12:28:44;1.93;;;1.00;;
31182;SDS011;17813;0.000;0.000;2023-12-22T12:31:39;1.43;;;1.00;;
31182;SDS011;17813;0.000;0.000;2023-12-22T12:34:12;2.10;;;1.10;;
31182;SDS011;17813;0.000;0.000;2023-12-22T12:36:44;0.73;;;0.60;;
31182;SDS011;17813;0.000;0.000;2023-12-22T12:39:14;1.83;;;0.90;;
31182;SDS011;17813;0.000;0.000;2023-12-22T12:41:43;1.30;;;0.80;;
31182;SDS011;17813;0.000;0.000;2023-12-22T12:44:18;2.37;;;1.10;;
31182;SDS011;17813;0.000;0.000;2023-12-22T12:47:12;1.13;;;0.80;;
31182;SDS011;17813;0.000;0.000;2023-12-22T12:49:46;2.07;;;0.70;;
31182;SDS011;17813;0.000;0.000;2023-12-22T12:52:27;1.43;;;0.87;;
31182;SDS011;17813;0.000;0.000;2023-12-22T12:55:00;1.40;;;0.90;;
31182;SDS011;17813;0.000;0.000;2023-12-22T12:57:27;0.80;;;0.77;;
31182;SDS011;17813;0.000;0.000;2023-12-22T12:59:55;1.20;;;0.73;;
31182;SDS011;17813;0.000;0.000;2023-12-22T13:02:32;4.27;;;0.90;;
31182;SDS011;17813;0.000;0.000;2023-12-22T13:05:19;1.03;;;0.70;;
31182;SDS011;17813;0.000;0.000;2023-12-22T13:07:49;2.07;;;0.90;;
31182;SDS011;17813;0.000;0.000;2023-12-22T13:10:24;1.03;;;0.80;;
31182;SDS011;17813;0.000;0.000;2023-12-22T13:12:53;1.77;;;0.67;;
31182;SDS011;17813;0.000;0.000;2023-12-22T13:15:35;4.10;;;1.10;;
31182;SDS011;17813;0.000;0.000;2023-12-22T13:18:07;2.30;;;1.10;;
31182;SDS011;17813;0.000;0.000;2023-12-22T13:20:54;1.83;;;0.80;;
31182;SDS011;17813;0.000;0.000;2023-12-22T13:23:21;2.30;;;1.17;;
31182;SDS011;17813;0.000;0.000;2023-12-22T13:25:49;2.10;;;0.93;;
31182;SDS011;17813;0.000;0.000;2023-12-22T13:28:27;2.00;;;0.90;;
31182;SDS011;17813;0.000;0.000;2023-12-22T13:30:55;1.73;;;0.90;;
31182;SDS011;17813;0.000;0.000;2023-12-22T13:33:35;1.20;;;1.00;;
31182;SDS011;17813;0.000;0.000;2023-12-22T13:36:14;1.43;;;0.80;;
31182;SDS011;17813;0.000;0.000;2023-12-22T13:38:48;1.27;;;0.93;;
31182;SDS011;17813;0.000;0.000;2023-12-22T13:41:29;1.23;;;0.80;;
31182;SDS011;17813;0.000;0.000;2023-12-22T13:44:03;1.23;;;0.70;;
31182;SDS011;17813;0.000;0.000;2023-12-22T13:46:38;2.17;;;1.03;;
31182;SDS011;17813;0.000;0.000;2023-12-22T13:49:11;2.70;;;0.90;;
31182;SDS011;17813;0.000;0.000;2023-12-22T13:51:42;2.07;;;1.23;;
31182;SDS011;17813;0.000;0.000;2023-12-22T13:54:31;3.00;;;1.00;;
31182;SDS011;17813;0.000;0.000;2023-12-22T13:57:02;2.10;;;0.90;;
31182;SDS011;17813;0.000;0.000;2023-12-22T13:59:54;2.10;;;1.20;;
31182;SDS011;17813;0.000;0.000;2023-12-22T14:05:21;2.67;;;1.10;;
31182;SDS011;17813;0.000;0.000;2023-12-22T14:07:57;2.13;;;0.80;;
31182;SDS011;17813;0.000;0.000;2023-12-22T14:10:28;2.43;;;0.80;;
31182;SDS011;17813;0.000;0.000;2023-12-22T14:13:15;1.73;;;1.00;;
31182;SDS011;17813;0.000;0.000;2023-12-22T14:16:06;2.43;;;1.20;;
31182;SDS011;17813;0.000;0.000;2023-12-22T14:18:33;3.03;;;1.10;;
31182;SDS011;17813;0.000;0.000;2023-12-22T14:21:01;1.67;;;0.90;;
31182;SDS011;17813;0.000;0.000;2023-12-22T14:23:40;3.77;;;1.10;;
31182;SDS011;17813;0.000;0.000;2023-12-22T14:26:07;2.10;;;1.17;;
31182;SDS011;17813;0.000;0.000;2023-12-22T14:28:44;2.47;;;1.00;;
31182;SDS011;17813;0.000;0.000;2023-12-22T14:31:25;2.23;;;1.00;;
31182;SDS011;17813;0.000;0.000;2023-12-22T14:33:52;2.90;;;1.20;;
31182;SDS011;17813;0.000;0.000;2023-12-22T14:36:24;2.50;;;1.10;;
31182;SDS011;17813;0.000;0.000;2023-12-22T14:38:51;2.90;;;1.20;;
31182;SDS011;17813;0.000;0.000;2023-12-22T14:41:28;1.50;;;1.00;;
31182;SDS011;17813;0.000;0.000;2023-12-22T14:44:14;1.93;;;1.17;;
31182;SDS011;17813;0.000;0.000;2023-12-22T14:46:41;2.10;;;1.10;;
31182;SDS011;17813;0.000;0.000;2023-12-22T14:49:08;2.67;;;1.03;;
31182;SDS011;17813;0.000;0.000;2023-12-22T14:51:59;1.53;;;0.80;;
31182;SDS011;17813;0.000;0.000;2023-12-22T14:54:27;2.40;;;0.90;;
31182;SDS011;17813;0.000;0.000;2023-12-22T14:56:56;2.07;;;1.00;;
31182;SDS011;17813;0.000;0.000;2023-12-22T14:59:26;1.87;;;1.00;;
31182;SDS011;17813;0.000;0.000;2023-12-22T15:01:53;1.73;;;0.97;;
31182;SDS011;17813;0.000;0.000;2023-12-22T15:04:20;0.97;;;0.60;;
31182;SDS011;17813;0.000;0.000;2023-12-22T15:06:48;1.40;;;0.87;;
31182;SDS011;17813;0.000;0.000;2023-12-22T15:09:24;0.70;;;0.70;;
31182;SDS011;17813;0.000;0.000;2023-12-22T15:11:51;0.73;;;0.73;;
31182;SDS011;17813;0.000;0.000;2023-12-22T15:14:20;1.90;;;0.93;;
31182;SDS011;17813;0.000;0.000;2023-12-22T15:16:48;2.03;;;0.80;;
31182;SDS011;17813;0.000;0.000;2023-12-22T15:19:28;1.93;;;0.93;;
31182;SDS011;17813;0.000;0.000;2023-12-22T15:21:55;0.87;;;0.70;;
31182;SDS011;17813;0.000;0.000;2023-12-22T15:24:22;1.27;;;0.87;;
31182;SDS011;17813;0.000;0.000;2023-12-22T15:27:10;0.90;;;0.60;;
31182;SDS011;17813;0.000;0.000;2023-12-22T15:29:40;3.10;;;0.70;;
31182;SDS011;17813;0.000;0.000;2023-12-22T15:32:07;0.73;;;0.73;;
31182;SDS011;17813;0.000;0.000;2023-12-22T15:34:54;0.70;;;0.70;;
31182;SDS011;17813;0.000;0.000;2023-12-22T15:37:32;1.10;;;0.50;;
31182;SDS011;17813;0.000;0.000;2023-12-22T15:40:19;1.47;;;0.60;;
31182;SDS011;17813;0.000;0.000;2023-12-22T15:42:46;1.13;;;0.80;;
31182;SDS011;17813;0.000;0.000;2023-12-22T15:45:13;1.03;;;0.80;;
31182;SDS011;17813;0.000;0.000;2023-12-22T15:47:56;1.07;;;0.80;;
31182;SDS011;17813;0.000;0.000;2023-12-22T15:50:23;2.03;;;0.90;;
31182;SDS011;17813;0.000;0.000;2023-12-22T15:53:00;1.33;;;0.67;;
31182;SDS011;17813;0.000;0.000;2023-12-22T15:55:29;0.97;;;0.70;;
31182;SDS011;17813;0.000;0.000;2023-12-22T15:57:56;1.00;;;0.77;;
31182;SDS011;17813;0.000;0.000;2023-12-22T16:00:38;1.53;;;1.00;;
31182;SDS011;17813;0.000;0.000;2023-12-22T16:03:13;1.53;;;1.10;;
31182;SDS011;17813;0.000;0.000;2023-12-22T16:05:43;1.20;;;0.83;;
31182;SDS011;17813;0.000;0.000;2023-12-22T16:08:10;1.53;;;0.80;;
31182;SDS011;17813;0.000;0.000;2023-12-22T16:10:37;0.63;;;0.50;;
31182;SDS011;17813;0.000;0.000;2023-12-22T16:13:05;0.83;;;0.70;;
31182;SDS011;17813;0.000;0.000;2023-12-22T16:15:33;0.80;;;0.60;;
31182;SDS011;17813;0.000;0.000;2023-12-22T16:18:28;0.97;;;0.80;;